Time;durP1;ratioP1;P1;durP2;ratioP2;P2;SDS_P1;SDS_P2;PMS_P1;PMS_P2;Temp;Humidity;BMP_temperature;BMP_pressure;BME280_temperature;BME280_humidity;BME280_pressure;Samples;Min_cycle;Max_cycle;Signal;HPM_P1;HPM_P2
2021/01/22 00:00:41;;;;;;;;;;;;;;;5.74;100.00;98608.75;5112000;28;19985;-76
2021/01/22 00:03:07;;;;;;;;;;;;;;;5.70;100.00;98611.75;5105695;28;20350;-76
2021/01/22 00:05:33;;;;;;;;;;;;;;;5.72;100.00;98591.88;5107319;28;19963;-77
2021/01/22 00:08:00;;;;;;;;;;;;;;;5.69;100.00;98593.91;5111794;28;19931;-76
2021/01/22 00:10:25;;;;;;;;;;;;;;;5.66;100.00;98583.41;5112133;28;19965;-75
2021/01/22 00:12:51;;;;;;;;;;;;;;;5.70;100.00;98584.84;5111994;28;19931;-77
2021/01/22 00:15:17;;;;;;;;;;;;;;;5.76;100.00;98571.75;5111851;28;19934;-76
2021/01/22 00:17:43;;;;;;;;;;;;;;;5.72;100.00;98564.97;5110455;28;19924;-76
2021/01/22 00:20:10;;;;;;;;;;;;;;;5.67;100.00;98557.34;5111960;28;20026;-76
2021/01/22 00:22:35;;;;;;;;;;;;;;;5.70;100.00;98549.84;5111856;28;20404;-76
2021/01/22 00:25:02;;;;;;;;;;;;;;;5.70;100.00;98551.66;5111944;28;19923;-76
2021/01/22 00:27:29;;;;;;;;;;;;;;;5.70;100.00;98536.38;5114195;28;19958;-76
2021/01/22 00:29:54;;;;;;;;;;;;;;;5.69;100.00;98539.19;5123398;28;19935;-76
2021/01/22 00:32:20;;;;;;;;;;;;;;;5.68;100.00;98514.13;5119235;28;19928;-76
2021/01/22 00:34:46;;;;;;;;;;;;;;;5.69;100.00;98507.75;5118168;28;19928;-76
2021/01/22 00:37:12;;;;;;;;;;;;;;;5.68;100.00;98499.81;5117864;28;20392;-76
2021/01/22 00:39:38;;;;;;;;;;;;;;;5.72;100.00;98486.91;5117377;28;19967;-76
2021/01/22 00:42:05;;;;;;;;;;;;;;;5.75;100.00;98483.94;5116839;28;19939;-76
2021/01/22 00:44:31;;;;;;;;;;;;;;;5.74;100.00;98480.38;5115896;28;19923;-75
2021/01/22 00:46:56;;;;;;;;;;;;;;;5.71;100.00;98469.91;5118759;28;20410;-75
2021/01/22 00:49:22;;;;;;;;;;;;;;;5.75;100.00;98478.53;5120135;28;19924;-75
2021/01/22 00:51:48;;;;;;;;;;;;;;;5.80;100.00;98463.63;5124974;28;19931;-75
2021/01/22 00:54:15;;;;;;;;;;;;;;;5.79;100.00;98474.56;5122745;28;19930;-76
2021/01/22 00:57:00;;;;;;;;;;;;;;;5.80;100.00;98460.06;5124028;28;20007;-75
2021/01/22 00:59:28;;;;;;;;;;;;;;;5.85;100.00;98452.41;5121778;28;19931;-75
2021/01/22 01:01:54;;;;;;;;;;;;;;;5.89;100.00;98450.25;5119459;28;19931;-76
2021/01/22 01:04:20;;;;;;;;;;;;;;;5.92;100.00;98447.25;5114463;28;19927;-75
2021/01/22 01:07:00;;;;;;;;;;;;;;;6.05;100.00;98442.38;5113778;28;19962;-75
2021/01/22 01:09:26;;;;;;;;;;;;;;;6.16;100.00;98446.72;5113799;28;19959;-75
2021/01/22 01:12:15;;;;;;;;;;;;;;;6.28;100.00;98433.88;5085647;28;19924;-75
2021/01/22 01:14:59;;;;;;;;;;;;;;;6.32;100.00;98430.72;5113654;28;19924;-75
2021/01/22 01:17:35;;;;;;;;;;;;;;;6.35;100.00;98440.38;5114676;28;19924;-75
2021/01/22 01:20:02;;;;;;;;;;;;;;;6.40;100.00;98424.59;5114881;28;20343;-75
2021/01/22 01:22:28;;;;;;;;;;;;;;;6.46;100.00;98423.94;5114733;28;19971;-75
2021/01/22 01:24:53;;;;;;;;;;;;;;;6.56;100.00;98429.28;5114778;28;19931;-75
2021/01/22 01:27:19;;;;;;;;;;;;;;;6.70;100.00;98427.88;5114536;28;19932;-75
2021/01/22 01:29:45;;;;;;;;;;;;;;;6.84;100.00;98427.31;5114726;28;19931;-75
2021/01/22 01:32:12;;;;;;;;;;;;;;;7.04;100.00;98410.91;5114613;28;19930;-75
2021/01/22 01:34:38;;;;;;;;;;;;;;;7.27;100.00;98416.63;5114548;28;19931;-76
2021/01/22 01:37:03;;;;;;;;;;;;;;;7.41;100.00;98419.75;5114383;28;19927;-75
2021/01/22 01:39:29;;;;;;;;;;;;;;;7.42;100.00;98424.97;5114520;28;19924;-75
2021/01/22 01:41:55;;;;;;;;;;;;;;;7.44;100.00;98414.88;5114596;28;19924;-75
2021/01/22 01:44:21;;;;;;;;;;;;;;;7.44;100.00;98405.91;5113677;28;19924;-76
2021/01/22 01:46:47;;;;;;;;;;;;;;;7.53;100.00;98413.88;5114299;28;19927;-75
2021/01/22 01:49:13;;;;;;;;;;;;;;;7.55;100.00;98411.03;5114369;28;19977;-75
2021/01/22 01:51:39;;;;;;;;;;;;;;;7.58;100.00;98404.47;5114399;28;19967;-75
2021/01/22 01:54:05;;;;;;;;;;;;;;;7.58;100.00;98399.06;5114141;28;20408;-75
2021/01/22 01:56:31;;;;;;;;;;;;;;;7.65;100.00;98400.09;5114063;28;19966;-75
2021/01/22 01:58:57;;;;;;;;;;;;;;;7.72;100.00;98376.81;5114160;28;19934;-75
2021/01/22 02:01:23;;;;;;;;;;;;;;;7.75;100.00;98373.81;5114213;28;19932;-75
2021/01/22 02:03:49;;;;;;;;;;;;;;;7.91;100.00;98372.16;5114061;28;19963;-75
2021/01/22 02:06:16;;;;;;;;;;;;;;;7.96;100.00;98372.50;5113728;28;19992;-76
2021/01/22 02:08:42;;;;;;;;;;;;;;;7.95;100.00;98374.38;5113959;28;19924;-76
2021/01/22 02:11:08;;;;;;;;;;;;;;;7.94;100.00;98369.16;5114051;28;19955;-76
2021/01/22 02:13:35;;;;;;;;;;;;;;;7.99;100.00;98370.34;5114010;27;19924;-76
2021/01/22 02:16:01;;;;;;;;;;;;;;;8.15;100.00;98371.34;5113683;28;19961;-75
2021/01/22 02:18:27;;;;;;;;;;;;;;;8.25;100.00;98363.94;5113871;28;19977;-76
2021/01/22 02:20:59;;;;;;;;;;;;;;;8.27;100.00;98358.38;5113848;28;19931;-75
2021/01/22 02:23:26;;;;;;;;;;;;;;;8.23;100.00;98351.63;5112442;28;19927;-75
2021/01/22 02:25:55;;;;;;;;;;;;;;;8.37;100.00;98338.28;5113435;28;19924;-75
2021/01/22 02:28:22;;;;;;;;;;;;;;;8.54;100.00;98344.56;5113514;28;19971;-75
2021/01/22 02:30:49;;;;;;;;;;;;;;;8.70;100.00;98332.06;5113505;28;19978;-74
2021/01/22 02:33:15;;;;;;;;;;;;;;;8.73;100.00;98320.88;5112333;28;19952;-76
2021/01/22 02:35:41;;;;;;;;;;;;;;;8.70;100.00;98313.94;5113114;28;19965;-76
2021/01/22 02:38:07;;;;;;;;;;;;;;;8.78;100.00;98313.09;5112192;28;19967;-77
2021/01/22 02:40:34;;;;;;;;;;;;;;;8.78;100.00;98317.66;5113246;28;20014;-76
2021/01/22 02:43:01;;;;;;;;;;;;;;;8.88;100.00;98313.75;5113110;28;20389;-75
2021/01/22 02:45:28;;;;;;;;;;;;;;;8.96;100.00;98310.16;5113076;28;20373;-75
2021/01/22 02:47:55;;;;;;;;;;;;;;;9.03;100.00;98310.31;5113061;28;20347;-77
2021/01/22 02:50:30;;;;;;;;;;;;;;;9.01;100.00;98336.72;5113191;28;19966;-77
2021/01/22 02:52:58;;;;;;;;;;;;;;;9.01;100.00;98302.38;5113133;28;19959;-75
2021/01/22 02:55:24;;;;;;;;;;;;;;;9.00;100.00;98299.84;5112205;28;20453;-75
2021/01/22 02:57:53;;;;;;;;;;;;;;;9.02;100.00;98303.25;5112873;28;19923;-75
2021/01/22 03:00:21;;;;;;;;;;;;;;;8.96;100.00;98299.34;5112972;28;19965;-75
2021/01/22 03:02:51;;;;;;;;;;;;;;;8.94;100.00;98287.88;5111900;28;20025;-75
2021/01/22 03:05:18;;;;;;;;;;;;;;;8.95;100.00;98280.59;5115504;28;19931;-75
2021/01/22 03:07:46;;;;;;;;;;;;;;;8.88;100.00;98278.59;5112691;28;19959;-77
2021/01/22 03:10:13;;;;;;;;;;;;;;;8.90;100.00;98275.72;5112841;28;19930;-75
2021/01/22 03:12:40;;;;;;;;;;;;;;;8.93;100.00;98267.22;5112771;28;20007;-75
2021/01/22 03:15:06;;;;;;;;;;;;;;;8.95;100.00;98261.63;5112658;28;19931;-74
2021/01/22 03:17:32;;;;;;;;;;;;;;;8.95;100.00;98269.75;5112468;28;20464;-76
2021/01/22 03:19:58;;;;;;;;;;;;;;;8.87;100.00;98274.19;5112348;28;19923;-75
2021/01/22 03:22:24;;;;;;;;;;;;;;;8.90;100.00;98256.78;5112492;28;20343;-75
2021/01/22 03:24:50;;;;;;;;;;;;;;;8.86;100.00;98260.84;5112454;28;19950;-75
2021/01/22 03:27:16;;;;;;;;;;;;;;;8.82;100.00;98257.63;5112238;28;19923;-74
2021/01/22 03:29:41;;;;;;;;;;;;;;;8.81;100.00;98258.66;5112473;28;19931;-75
2021/01/22 03:32:08;;;;;;;;;;;;;;;8.75;100.00;98263.91;5112419;28;19959;-75
2021/01/22 03:34:34;;;;;;;;;;;;;;;8.84;100.00;98262.88;5111108;28;20023;-75
2021/01/22 03:37:02;;;;;;;;;;;;;;;8.84;100.00;98252.88;5112151;28;19970;-76
2021/01/22 03:39:28;;;;;;;;;;;;;;;8.83;100.00;98248.50;5110995;28;20370;-75
2021/01/22 03:41:54;;;;;;;;;;;;;;;8.85;100.00;98249.16;5112289;28;20014;-75
2021/01/22 03:44:20;;;;;;;;;;;;;;;8.83;100.00;98256.63;5112117;28;19931;-75
2021/01/22 03:46:46;;;;;;;;;;;;;;;8.84;100.00;98247.47;5112044;28;20088;-76
2021/01/22 03:49:12;;;;;;;;;;;;;;;8.85;100.00;98249.16;5112213;28;20060;-76
2021/01/22 03:51:38;;;;;;;;;;;;;;;8.85;100.00;98235.63;5112275;28;20403;-75
2021/01/22 03:54:05;;;;;;;;;;;;;;;8.77;100.00;98245.66;5112126;28;19924;-75
2021/01/22 03:56:31;;;;;;;;;;;;;;;8.73;100.00;98241.59;5111875;28;20329;-75
2021/01/22 03:58:57;;;;;;;;;;;;;;;8.65;100.00;98235.19;5112222;28;19963;-75
2021/01/22 04:01:24;;;;;;;;;;;;;;;8.63;100.00;98234.53;5112211;28;19934;-75
2021/01/22 04:03:49;;;;;;;;;;;;;;;8.62;100.00;98237.38;5112130;28;19977;-75
2021/01/22 04:06:15;;;;;;;;;;;;;;;8.65;100.00;98237.06;5111877;28;19923;-76
2021/01/22 04:08:41;;;;;;;;;;;;;;;8.72;100.00;98227.22;5116462;28;20006;-76
2021/01/22 04:11:08;;;;;;;;;;;;;;;8.76;100.00;98225.03;5116281;28;19928;-75
2021/01/22 04:13:34;;;;;;;;;;;;;;;8.68;100.00;98220.47;5116224;28;20057;-76
2021/01/22 04:16:01;;;;;;;;;;;;;;;8.65;100.00;98210.84;5116044;28;19924;-76
2021/01/22 04:18:26;;;;;;;;;;;;;;;8.70;100.00;98216.59;5116233;28;19993;-75
2021/01/22 04:20:52;;;;;;;;;;;;;;;8.74;100.00;98208.09;5116054;28;19924;-76
2021/01/22 04:23:18;;;;;;;;;;;;;;;8.73;100.00;98207.28;5116935;28;19931;-76
2021/01/22 04:25:45;;;;;;;;;;;;;;;8.71;100.00;98193.94;5117033;28;19923;-75
2021/01/22 04:28:12;;;;;;;;;;;;;;;8.78;100.00;98202.19;5119943;28;20365;-75
2021/01/22 04:30:37;;;;;;;;;;;;;;;8.79;100.00;98194.91;5126845;28;19955;-75
2021/01/22 04:33:03;;;;;;;;;;;;;;;8.90;100.00;98197.25;5116927;28;19924;-75
2021/01/22 04:35:29;;;;;;;;;;;;;;;8.81;100.00;98188.31;5118170;28;20022;-75
2021/01/22 04:37:56;;;;;;;;;;;;;;;8.85;100.00;98169.88;5118375;28;19923;-75
2021/01/22 04:40:23;;;;;;;;;;;;;;;8.93;100.00;98171.72;5118865;28;19959;-76
2021/01/22 04:42:49;;;;;;;;;;;;;;;8.87;100.00;98165.97;5119414;28;20022;-75
2021/01/22 04:45:16;;;;;;;;;;;;;;;8.85;100.00;98178.81;5118803;28;19924;-75
2021/01/22 04:47:42;;;;;;;;;;;;;;;8.94;100.00;98157.13;5116365;28;20015;-75
2021/01/22 04:50:08;;;;;;;;;;;;;;;8.90;100.00;98156.66;5116135;28;20052;-75
2021/01/22 04:52:35;;;;;;;;;;;;;;;8.86;100.00;98153.47;5117485;28;20022;-75
2021/01/22 04:55:02;;;;;;;;;;;;;;;8.74;100.00;98144.06;5117869;28;19955;-77
2021/01/22 04:57:30;;;;;;;;;;;;;;;8.76;100.00;98142.00;5115944;28;19955;-76
2021/01/22 04:59:56;;;;;;;;;;;;;;;8.77;100.00;98143.69;5115884;28;20007;-76
2021/01/22 05:02:23;;;;;;;;;;;;;;;8.68;100.00;98142.03;5117505;28;20043;-77
2021/01/22 05:04:49;;;;;;;;;;;;;;;8.55;100.00;98131.78;5115968;28;20049;-77
2021/01/22 05:07:15;;;;;;;;;;;;;;;8.61;100.00;98132.97;5115174;28;19995;-76
2021/01/22 05:09:41;;;;;;;;;;;;;;;8.61;100.00;98133.78;5115204;28;19967;-76
2021/01/22 05:12:08;;;;;;;;;;;;;;;8.54;100.00;98122.84;5115078;28;19951;-77
2021/01/22 05:14:34;;;;;;;;;;;;;;;8.60;100.00;98136.69;5115179;28;20010;-76
2021/01/22 05:17:00;;;;;;;;;;;;;;;8.64;100.00;98129.91;5114937;28;20327;-76
2021/01/22 05:19:27;;;;;;;;;;;;;;;8.55;100.00;98129.06;5112882;28;20018;-76
2021/01/22 05:21:53;;;;;;;;;;;;;;;8.48;100.00;98123.53;5112259;28;20384;-75
2021/01/22 05:24:19;;;;;;;;;;;;;;;8.38;100.00;98118.28;5113927;28;19977;-75
2021/01/22 05:26:45;;;;;;;;;;;;;;;8.29;100.00;98123.91;5114603;28;19924;-75
2021/01/22 05:29:14;;;;;;;;;;;;;;;8.29;100.00;98118.50;5100616;28;20305;-74
2021/01/22 05:31:40;;;;;;;;;;;;;;;8.35;100.00;98128.59;5094303;28;19964;-74
2021/01/22 05:34:06;;;;;;;;;;;;;;;8.34;100.00;98114.25;5102276;28;19963;-75
2021/01/22 05:36:33;;;;;;;;;;;;;;;8.42;100.00;98126.03;5111282;28;19924;-74
2021/01/22 05:38:59;;;;;;;;;;;;;;;8.34;100.00;98122.38;5110473;28;19969;-75
2021/01/22 05:41:25;;;;;;;;;;;;;;;8.24;100.00;98132.53;5096243;28;19928;-75
2021/01/22 05:43:51;;;;;;;;;;;;;;;8.19;100.00;98122.25;5114345;28;20018;-75
2021/01/22 05:46:18;;;;;;;;;;;;;;;8.27;100.00;98120.53;5113294;28;19932;-75
2021/01/22 05:48:44;;;;;;;;;;;;;;;8.23;100.00;98127.28;5114421;28;20397;-75
2021/01/22 05:51:11;;;;;;;;;;;;;;;8.20;100.00;98126.66;5107482;28;19951;-75
2021/01/22 05:53:44;;;;;;;;;;;;;;;8.17;100.00;98124.25;5114331;28;20014;-75
2021/01/22 05:56:11;;;;;;;;;;;;;;;8.10;100.00;98131.38;5100615;28;19924;-75
2021/01/22 05:58:38;;;;;;;;;;;;;;;8.04;100.00;98121.25;5093866;28;19928;-75
2021/01/22 06:01:07;;;;;;;;;;;;;;;8.05;100.00;98115.69;5104974;28;19930;-75
2021/01/22 06:03:33;;;;;;;;;;;;;;;8.20;100.00;98121.25;5109076;28;19980;-75
2021/01/22 06:05:59;;;;;;;;;;;;;;;8.23;100.00;98114.66;5099720;28;19949;-75
2021/01/22 06:08:25;;;;;;;;;;;;;;;8.17;100.00;98115.31;5111471;28;20001;-75
2021/01/22 06:10:53;;;;;;;;;;;;;;;8.14;100.00;98112.97;5113914;28;19923;-75
2021/01/22 06:13:23;;;;;;;;;;;;;;;8.11;100.00;98106.06;5110596;28;20034;-76
2021/01/22 06:15:49;;;;;;;;;;;;;;;8.05;100.00;98101.34;5093084;28;20031;-74
2021/01/22 06:18:17;;;;;;;;;;;;;;;8.10;100.00;98087.31;5093563;28;20018;-75
2021/01/22 06:20:42;;;;;;;;;;;;;;;8.07;100.00;98099.31;5092600;28;20015;-76
2021/01/22 06:23:12;;;;;;;;;;;;;;;8.02;100.00;98101.69;5105970;28;20285;-75
2021/01/22 06:25:38;;;;;;;;;;;;;;;7.97;100.00;98096.78;5108383;28;20456;-73
2021/01/22 06:28:05;;;;;;;;;;;;;;;8.04;100.00;98096.94;5104852;28;19935;-73
2021/01/22 06:30:32;;;;;;;;;;;;;;;7.91;100.00;98100.19;5111170;28;20449;-74
2021/01/22 06:32:58;;;;;;;;;;;;;;;7.83;100.00;98097.47;5112294;28;19973;-74
2021/01/22 06:35:26;;;;;;;;;;;;;;;7.70;100.00;98098.84;5107855;28;20051;-75
2021/01/22 06:37:52;;;;;;;;;;;;;;;7.64;100.00;98094.16;5097792;28;19976;-74
2021/01/22 06:40:19;;;;;;;;;;;;;;;7.67;100.00;98098.34;5110017;28;20026;-74
2021/01/22 06:42:45;;;;;;;;;;;;;;;7.71;100.00;98100.56;5107983;28;19970;-74
2021/01/22 06:45:12;;;;;;;;;;;;;;;7.76;100.00;98093.78;5110482;28;20403;-75
2021/01/22 06:47:38;;;;;;;;;;;;;;;7.83;100.00;98094.78;5112567;28;20448;-74
2021/01/22 06:50:19;;;;;;;;;;;;;;;7.83;100.00;98106.44;5111652;28;19924;-75
2021/01/22 06:53:02;;;;;;;;;;;;;;;7.79;100.00;98105.09;5111116;28;20014;-75
2021/01/22 06:55:28;;;;;;;;;;;;;;;7.69;100.00;98107.97;5110840;28;19930;-75
2021/01/22 06:58:22;;;;;;;;;;;;;;;7.77;100.00;98117.09;5097602;28;19928;-75
2021/01/22 07:00:49;;;;;;;;;;;;;;;7.81;100.00;98092.25;5108820;28;20324;-75
2021/01/22 07:03:29;;;;;;;;;;;;;;;7.87;100.00;98106.97;5111579;28;19924;-75
2021/01/22 07:05:55;;;;;;;;;;;;;;;7.86;100.00;98114.19;5113665;27;20010;-76
2021/01/22 07:08:51;;;;;;;;;;;;;;;7.86;100.00;98106.09;5111906;27;19924;-76
2021/01/22 07:11:17;;;;;;;;;;;;;;;7.84;100.00;98110.84;5102519;27;20015;-76
2021/01/22 07:13:45;;;;;;;;;;;;;;;7.86;100.00;98116.91;5110696;28;20032;-75
2021/01/22 07:16:22;;;;;;;;;;;;;;;7.78;100.00;98122.31;5104710;28;20013;-75
2021/01/22 07:18:50;;;;;;;;;;;;;;;7.75;100.00;98106.47;5092123;28;19980;-75
2021/01/22 07:21:37;;;;;;;;;;;;;;;7.79;100.00;98128.56;5090744;28;20019;-74
2021/01/22 07:24:04;;;;;;;;;;;;;;;7.85;100.00;98119.78;5090824;28;20069;-74
2021/01/22 07:26:34;;;;;;;;;;;;;;;8.02;100.00;98118.72;5101986;28;19924;-74
2021/01/22 07:29:13;;;;;;;;;;;;;;;8.10;100.00;98117.88;5096641;28;19924;-76
2021/01/22 07:31:49;;;;;;;;;;;;;;;8.27;100.00;98115.97;5111603;28;19963;-76
2021/01/22 07:34:34;;;;;;;;;;;;;;;8.42;100.00;98128.75;5091542;28;20010;-75
2021/01/22 07:36:59;;;;;;;;;;;;;;;8.72;100.00;98113.63;5097691;28;20404;-75
2021/01/22 07:39:27;;;;;;;;;;;;;;;9.07;100.00;98115.97;5110178;28;19960;-76
2021/01/22 07:42:02;;;;;;;;;;;;;;;9.28;100.00;98107.22;5094156;28;20011;-76
2021/01/22 07:44:28;;;;;;;;;;;;;;;9.43;100.00;98108.09;5091396;28;19928;-75
2021/01/22 07:46:54;;;;;;;;;;;;;;;9.62;100.00;98119.47;5092454;28;19931;-75
2021/01/22 07:49:20;;;;;;;;;;;;;;;9.67;100.00;98125.19;5102680;28;20019;-76
2021/01/22 07:51:46;;;;;;;;;;;;;;;9.63;100.00;98115.75;5096200;28;19924;-76
2021/01/22 07:54:13;;;;;;;;;;;;;;;9.49;100.00;98123.63;5103055;28;19962;-76
2021/01/22 07:56:39;;;;;;;;;;;;;;;9.41;100.00;98115.56;5111655;28;20371;-75
2021/01/22 07:59:06;;;;;;;;;;;;;;;9.46;100.00;98126.72;5107889;28;19967;-76
2021/01/22 08:01:32;;;;;;;;;;;;;;;9.60;100.00;98140.50;5107149;28;19975;-76
2021/01/22 08:03:58;;;;;;;;;;;;;;;9.72;100.00;98139.84;5106609;28;19981;-76
2021/01/22 08:06:24;;;;;;;;;;;;;;;9.62;100.00;98130.28;5103619;28;20456;-76
2021/01/22 08:09:03;;;;;;;;;;;;;;;9.51;100.00;98124.31;5111845;28;19924;-76
2021/01/22 08:11:29;;;;;;;;;;;;;;;9.44;100.00;98134.16;5101496;28;20419;-77
2021/01/22 08:13:55;;;;;;;;;;;;;;;9.41;100.00;98131.81;5103387;28;19955;-77
2021/01/22 08:16:21;;;;;;;;;;;;;;;9.36;100.00;98150.47;5098692;28;19928;-76
2021/01/22 08:18:47;;;;;;;;;;;;;;;9.35;100.00;98146.94;5108021;28;19939;-75
2021/01/22 08:21:13;;;;;;;;;;;;;;;9.34;100.00;98129.00;5091047;28;20274;-75
2021/01/22 08:23:42;;;;;;;;;;;;;;;9.31;100.00;98129.38;5093861;28;20013;-76
2021/01/22 08:26:08;;;;;;;;;;;;;;;9.30;100.00;98152.03;5110878;28;19927;-76
2021/01/22 08:28:34;;;;;;;;;;;;;;;9.31;100.00;98147.44;5110840;28;19950;-76
2021/01/22 08:31:00;;;;;;;;;;;;;;;9.30;100.00;98151.19;5108716;28;20101;-76
2021/01/22 08:33:26;;;;;;;;;;;;;;;9.36;100.00;98154.00;5111210;28;19923;-77
2021/01/22 08:35:52;;;;;;;;;;;;;;;9.37;100.00;98169.25;5090787;28;19924;-76
2021/01/22 08:38:19;;;;;;;;;;;;;;;9.40;100.00;98170.75;5094602;28;19932;-76
2021/01/22 08:40:44;;;;;;;;;;;;;;;9.45;100.00;98179.19;5097423;28;20019;-76
2021/01/22 08:43:12;;;;;;;;;;;;;;;9.45;100.00;98190.00;5091278;28;20343;-76
2021/01/22 08:45:38;;;;;;;;;;;;;;;9.46;100.00;98194.41;5093572;28;20026;-76
2021/01/22 08:48:04;;;;;;;;;;;;;;;9.38;100.00;98200.72;5111038;28;19985;-76
2021/01/22 08:50:30;;;;;;;;;;;;;;;9.33;100.00;98213.09;5110710;28;19959;-76
2021/01/22 08:53:03;;;;;;;;;;;;;;;9.26;100.00;98229.22;5111612;28;19961;-76
2021/01/22 08:55:30;;;;;;;;;;;;;;;9.20;100.00;98257.81;5106165;28;20012;-75
2021/01/22 08:57:58;;;;;;;;;;;;;;;8.77;100.00;98308.69;5101799;28;19960;-76
2021/01/22 09:00:25;;;;;;;;;;;;;;;7.95;100.00;98322.19;5107039;28;19960;-77
2021/01/22 09:02:50;;;;;;;;;;;;;;;7.49;100.00;98319.91;5094414;28;19986;-76
2021/01/22 09:05:16;;;;;;;;;;;;;;;7.18;100.00;98321.28;5098513;28;20393;-76
2021/01/22 09:07:43;;;;;;;;;;;;;;;7.03;100.00;98344.50;5106398;28;19924;-76
2021/01/22 09:10:24;;;;;;;;;;;;;;;6.94;100.00;98358.94;5114500;28;19985;-76
2021/01/22 09:12:50;;;;;;;;;;;;;;;6.85;100.00;98356.19;5114164;28;20020;-76
2021/01/22 09:15:16;;;;;;;;;;;;;;;6.78;100.00;98357.81;5112726;28;20366;-75
2021/01/22 09:17:44;;;;;;;;;;;;;;;6.72;100.00;98357.59;5112135;27;20018;-76
2021/01/22 09:20:14;;;;;;;;;;;;;;;6.67;100.00;98371.56;5103837;28;20413;-75
2021/01/22 09:22:40;;;;;;;;;;;;;;;6.64;100.00;98380.81;5111509;28;19945;-75
2021/01/22 09:25:06;;;;;;;;;;;;;;;6.61;100.00;98389.19;5099475;28;19924;-75
2021/01/22 09:27:33;;;;;;;;;;;;;;;6.60;100.00;98389.34;5114256;28;19975;-76
2021/01/22 09:30:00;;;;;;;;;;;;;;;6.58;100.00;98389.50;5113447;28;19924;-76
2021/01/22 09:32:26;;;;;;;;;;;;;;;6.58;100.00;98388.69;5113559;28;20381;-75
2021/01/22 09:34:52;;;;;;;;;;;;;;;6.59;100.00;98395.75;5114388;28;20400;-75
2021/01/22 09:37:18;;;;;;;;;;;;;;;6.58;100.00;98399.47;5098304;28;19928;-76
2021/01/22 09:39:44;;;;;;;;;;;;;;;6.57;100.00;98408.53;5096989;28;19924;-76
2021/01/22 09:42:09;;;;;;;;;;;;;;;6.60;100.00;98409.09;5113340;28;20335;-77
2021/01/22 09:44:35;;;;;;;;;;;;;;;6.61;100.00;98415.31;5111428;28;19931;-76
2021/01/22 09:47:02;;;;;;;;;;;;;;;6.64;100.00;98404.22;5114206;28;20397;-76
2021/01/22 09:49:28;;;;;;;;;;;;;;;6.71;100.00;98418.78;5106546;28;19999;-76
2021/01/22 09:51:54;;;;;;;;;;;;;;;6.74;100.00;98418.47;5110658;28;19924;-76
2021/01/22 09:54:20;;;;;;;;;;;;;;;6.77;100.00;98411.91;5113363;28;20026;-76
2021/01/22 09:56:46;;;;;;;;;;;;;;;6.77;100.00;98420.84;5114469;28;19927;-76
2021/01/22 09:59:11;;;;;;;;;;;;;;;6.78;100.00;98430.63;5111973;28;20337;-76
2021/01/22 10:01:37;;;;;;;;;;;;;;;6.74;100.00;98431.94;5101277;28;19924;-75
2021/01/22 10:04:04;;;;;;;;;;;;;;;6.68;100.00;98432.56;5093846;28;19931;-77
2021/01/22 10:06:30;;;;;;;;;;;;;;;6.64;100.00;98441.97;5093518;28;20011;-76
2021/01/22 10:08:56;;;;;;;;;;;;;;;6.61;100.00;98429.63;5111101;28;20303;-76
2021/01/22 10:11:22;;;;;;;;;;;;;;;6.62;100.00;98438.59;5109476;28;20018;-75
2021/01/22 10:13:53;;;;;;;;;;;;;;;6.61;100.00;98432.31;5093070;28;20359;-75
2021/01/22 10:16:19;;;;;;;;;;;;;;;6.73;100.00;98421.31;5096021;28;20018;-75
2021/01/22 10:18:47;;;;;;;;;;;;;;;6.83;100.00;98428.31;5103720;28;20383;-76
2021/01/22 10:21:13;;;;;;;;;;;;;;;6.85;100.00;98426.31;5092714;28;20350;-76
2021/01/22 10:23:39;;;;;;;;;;;;;;;6.89;100.00;98424.13;5106617;28;20062;-76
2021/01/22 10:26:05;;;;;;;;;;;;;;;6.89;100.00;98434.91;5105356;28;19923;-76
2021/01/22 10:28:31;;;;;;;;;;;;;;;6.96;100.00;98438.69;5112605;28;19924;-76
2021/01/22 10:30:56;;;;;;;;;;;;;;;6.97;100.00;98442.22;5113368;28;20297;-76
2021/01/22 10:33:22;;;;;;;;;;;;;;;7.05;100.00;98444.97;5108832;28;19931;-76
2021/01/22 10:35:48;;;;;;;;;;;;;;;7.08;100.00;98446.50;5113127;28;19928;-76
2021/01/22 10:38:16;;;;;;;;;;;;;;;7.08;100.00;98455.47;5096806;28;20378;-76
2021/01/22 10:40:42;;;;;;;;;;;;;;;7.08;100.00;98468.09;5092600;28;19924;-76
2021/01/22 10:43:08;;;;;;;;;;;;;;;7.01;100.00;98467.88;5100533;28;19928;-76
2021/01/22 10:45:34;;;;;;;;;;;;;;;6.95;100.00;98477.44;5092474;28;19924;-76
2021/01/22 10:47:59;;;;;;;;;;;;;;;6.85;100.00;98474.00;5092741;28;19924;-76
2021/01/22 10:50:25;;;;;;;;;;;;;;;6.79;100.00;98480.84;5099936;28;20389;-76
2021/01/22 10:52:51;;;;;;;;;;;;;;;6.83;100.00;98486.81;5111234;28;19978;-76
2021/01/22 10:55:18;;;;;;;;;;;;;;;6.78;100.00;98489.13;5093863;28;19925;-76
2021/01/22 10:57:45;;;;;;;;;;;;;;;6.77;100.00;98490.94;5093587;28;19992;-76
2021/01/22 11:00:12;;;;;;;;;;;;;;;6.78;100.00;98487.25;5098981;28;19924;-76
2021/01/22 11:02:37;;;;;;;;;;;;;;;6.70;100.00;98479.09;5108349;28;19928;-75
2021/01/22 11:05:04;;;;;;;;;;;;;;;6.67;100.00;98474.84;5112390;28;19924;-76
2021/01/22 11:07:29;;;;;;;;;;;;;;;6.70;100.00;98481.78;5111602;28;20014;-76
2021/01/22 11:09:55;;;;;;;;;;;;;;;6.75;100.00;98497.50;5110060;28;19946;-75
2021/01/22 11:12:22;;;;;;;;;;;;;;;6.77;100.00;98490.09;5096282;28;19932;-76
2021/01/22 11:14:47;;;;;;;;;;;;;;;6.73;100.00;98492.25;5090959;28;20031;-76
2021/01/22 11:17:13;;;;;;;;;;;;;;;6.65;100.00;98487.63;5091030;28;19927;-75
2021/01/22 11:19:39;;;;;;;;;;;;;;;6.64;100.00;98491.34;5107238;28;20414;-76
2021/01/22 11:22:05;;;;;;;;;;;;;;;6.57;100.00;98498.34;5111502;28;19992;-77
2021/01/22 11:24:31;;;;;;;;;;;;;;;6.57;100.00;98501.03;5111650;28;19931;-76
2021/01/22 11:26:57;;;;;;;;;;;;;;;6.55;100.00;98497.66;5101083;28;19927;-77
2021/01/22 11:29:23;;;;;;;;;;;;;;;6.56;100.00;98507.44;5112050;28;19930;-76
2021/01/22 11:31:49;;;;;;;;;;;;;;;6.59;100.00;98523.31;5108961;28;20056;-75
2021/01/22 11:34:15;;;;;;;;;;;;;;;6.56;100.00;98510.16;5111249;28;20413;-76
2021/01/22 11:36:41;;;;;;;;;;;;;;;6.56;100.00;98514.66;5111755;28;19924;-75
2021/01/22 11:39:06;;;;;;;;;;;;;;;6.50;100.00;98511.59;5111585;28;20376;-75
2021/01/22 11:41:32;;;;;;;;;;;;;;;6.54;100.00;98509.44;5109053;28;19928;-75
2021/01/22 11:43:58;;;;;;;;;;;;;;;6.53;100.00;98503.22;5107290;28;19927;-74
2021/01/22 11:46:24;;;;;;;;;;;;;;;6.56;100.00;98509.28;5104803;28;20394;-75
2021/01/22 11:48:50;;;;;;;;;;;;;;;6.57;100.00;98513.69;5092035;28;20027;-75
2021/01/22 11:51:16;;;;;;;;;;;;;;;6.60;100.00;98513.34;5096712;28;20373;-75
2021/01/22 11:53:42;;;;;;;;;;;;;;;6.54;100.00;98515.66;5112505;28;19927;-76
2021/01/22 11:56:08;;;;;;;;;;;;;;;6.52;100.00;98503.34;5099246;28;19934;-75
2021/01/22 11:58:34;;;;;;;;;;;;;;;6.53;100.00;98508.59;5093653;28;19924;-76
2021/01/22 12:01:00;;;;;;;;;;;;;;;6.56;100.00;98507.44;5096617;28;19924;-76
2021/01/22 12:03:26;;;;;;;;;;;;;;;6.61;100.00;98509.66;5100875;28;20372;-75
2021/01/22 12:05:52;;;;;;;;;;;;;;;6.58;100.00;98510.00;5097893;28;19928;-75
2021/01/22 12:08:18;;;;;;;;;;;;;;;6.56;100.00;98507.44;5110956;28;19932;-74
2021/01/22 12:10:44;;;;;;;;;;;;;;;6.54;100.00;98512.13;5111979;28;19924;-74
2021/01/22 12:13:09;;;;;;;;;;;;;;;6.54;100.00;98502.19;5112236;28;20341;-74
2021/01/22 12:15:35;;;;;;;;;;;;;;;6.56;100.00;98499.38;5107039;28;19947;-75
2021/01/22 12:18:02;;;;;;;;;;;;;;;6.52;100.00;98501.50;5091578;28;19973;-76
2021/01/22 12:20:29;;;;;;;;;;;;;;;6.52;100.00;98508.72;5105506;28;20570;-74
2021/01/22 12:22:55;;;;;;;;;;;;;;;6.41;100.00;98511.66;5111820;28;19928;-76
2021/01/22 12:25:21;;;;;;;;;;;;;;;6.31;100.00;98517.97;5100706;28;19928;-75
2021/01/22 12:27:47;;;;;;;;;;;;;;;6.33;100.00;98507.03;5092080;28;19924;-75
2021/01/22 12:30:13;;;;;;;;;;;;;;;6.29;100.00;98505.63;5102492;28;20281;-75
2021/01/22 12:32:39;;;;;;;;;;;;;;;6.27;100.00;98504.94;5114511;28;20015;-75
2021/01/22 12:35:05;;;;;;;;;;;;;;;6.28;100.00;98512.00;5107901;28;19924;-75
2021/01/22 12:37:32;;;;;;;;;;;;;;;6.28;100.00;98517.41;5100063;28;20081;-75
2021/01/22 12:39:58;;;;;;;;;;;;;;;6.29;100.00;98508.31;5115463;28;20336;-76
2021/01/22 12:42:23;;;;;;;;;;;;;;;6.28;100.00;98520.09;5111476;28;19959;-75
2021/01/22 12:44:49;;;;;;;;;;;;;;;6.29;100.00;98519.09;5097473;28;20015;-76
2021/01/22 12:47:15;;;;;;;;;;;;;;;6.19;100.00;98517.31;5094875;28;19938;-75